createdAt,value
2022-12-13T00:01:26.208Z,-0.90
2022-12-13T00:03:54.313Z,-0.90
2022-12-13T00:06:20.939Z,-0.80
2022-12-13T00:08:47.523Z,-0.70
2022-12-13T00:11:14.714Z,-0.70
2022-12-13T00:13:42.641Z,-0.70
2022-12-13T00:16:14.185Z,-0.60
2022-12-13T00:18:41.166Z,-1.00
2022-12-13T00:21:09.915Z,-0.80
2022-12-13T00:23:36.531Z,-0.70
2022-12-13T00:26:08.235Z,-0.60
2022-12-13T00:28:34.824Z,-0.60
2022-12-13T00:31:26.909Z,-0.60
2022-12-13T00:33:49.227Z,-0.70
2022-12-13T00:36:16.340Z,-0.90
2022-12-13T00:38:43.351Z,-0.80
2022-12-13T00:41:20.404Z,-0.80
2022-12-13T00:43:47.641Z,-0.80
2022-12-13T00:46:16.514Z,-0.80
2022-12-13T00:48:44.008Z,-0.90
2022-12-13T00:51:11.939Z,-0.80
2022-12-13T00:53:39.068Z,-0.80
2022-12-13T00:56:11.315Z,-0.90
2022-12-13T00:58:38.023Z,-0.90
2022-12-13T01:01:09.980Z,-0.90
2022-12-13T01:03:37.066Z,-0.90
2022-12-13T01:06:15.433Z,-1.10
2022-12-13T01:08:43.399Z,-1.10
2022-12-13T01:11:10.649Z,-1.00
2022-12-13T01:13:38.159Z,-0.80
2022-12-13T01:16:06.891Z,-0.80
2022-12-13T01:18:33.606Z,-0.80
2022-12-13T01:21:03.216Z,-0.70
2022-12-13T01:23:30.214Z,-0.60
2022-12-13T01:25:57.251Z,-0.60
2022-12-13T01:28:24.893Z,-0.90
2022-12-13T01:30:59.532Z,-0.90
2022-12-13T01:33:27.308Z,-0.80
2022-12-13T01:35:54.621Z,-0.60
2022-12-13T01:38:26.380Z,-0.60
2022-12-13T01:40:59.429Z,-0.50
2022-12-13T01:43:29.790Z,-0.60
2022-12-13T01:45:56.437Z,-0.60
2022-12-13T01:48:29.345Z,-0.50
2022-12-13T01:51:00.388Z,-0.70
2022-12-13T01:53:31.570Z,-0.70
2022-12-13T01:56:02.358Z,-0.60
2022-12-13T01:58:29.408Z,-0.60
2022-12-13T02:00:57.737Z,-0.50
2022-12-13T02:03:24.347Z,-0.70
2022-12-13T02:06:01.085Z,-0.70
2022-12-13T02:08:29.614Z,-0.80
2022-12-13T02:10:57.199Z,-1.00
2022-12-13T02:13:23.944Z,-1.00
2022-12-13T02:16:03.499Z,-1.00
2022-12-13T02:18:30.057Z,-0.80
2022-12-13T02:21:01.201Z,-0.80
2022-12-13T02:23:39.351Z,-0.80
2022-12-13T02:26:43.634Z,-0.80
2022-12-13T02:29:42.555Z,-0.90
2022-12-13T02:32:44.896Z,-1.00
2022-12-13T02:35:30.664Z,-0.80
2022-12-13T02:38:03.056Z,-0.70
2022-12-13T02:40:44.702Z,-0.80
2022-12-13T02:43:17.487Z,-0.80
2022-12-13T02:45:51.405Z,-0.80
2022-12-13T02:48:25.259Z,-0.80
2022-12-13T02:50:53.416Z,-0.90
2022-12-13T02:53:22.462Z,-0.90
2022-12-13T02:55:49.569Z,-0.80
2022-12-13T02:58:22.160Z,-0.80
2022-12-13T03:01:28.345Z,-0.90
2022-12-13T03:04:58.048Z,-0.90
2022-12-13T03:07:32.181Z,-1.10
2022-12-13T03:10:06.243Z,-1.10
2022-12-13T03:13:23.124Z,-1.00
2022-12-13T03:15:59.866Z,-1.00
2022-12-13T03:18:28.182Z,-0.80
2022-12-13T03:21:00.254Z,-0.90
2022-12-13T03:23:27.685Z,-0.80
2022-12-13T03:25:56.459Z,-0.80
2022-12-13T03:28:24.058Z,-0.80
2022-12-13T03:30:50.836Z,-0.70
2022-12-13T03:33:17.566Z,-0.70
2022-12-13T03:35:45.819Z,-1.00
2022-12-13T03:38:22.466Z,-0.90
2022-12-13T03:40:55.727Z,-0.80
2022-12-13T03:43:23.511Z,-0.90
2022-12-13T03:45:51.501Z,-0.90
2022-12-13T03:48:22.773Z,-0.90
2022-12-13T03:50:50.980Z,-0.80
2022-12-13T03:53:22.401Z,-0.70
2022-12-13T03:56:00.813Z,-0.80
2022-12-13T03:58:36.221Z,-0.90
2022-12-13T04:01:08.938Z,-0.80
2022-12-13T04:03:37.022Z,-0.90
2022-12-13T04:06:04.737Z,-1.10
2022-12-13T04:08:31.493Z,-1.00
2022-12-13T04:10:58.159Z,-1.00
2022-12-13T04:13:33.954Z,-0.90
2022-12-13T04:16:01.803Z,-1.20
2022-12-13T04:18:28.485Z,-1.10
2022-12-13T04:20:55.079Z,-1.10
2022-12-13T04:23:21.627Z,-1.20
2022-12-13T04:25:48.242Z,-1.20
2022-12-13T04:28:22.108Z,-1.10
2022-12-13T04:30:52.886Z,-1.20
2022-12-13T04:33:24.388Z,-1.10
2022-12-13T04:35:51.761Z,-1.50
2022-12-13T04:38:18.758Z,-1.40
2022-12-13T04:40:45.769Z,-1.20
2022-12-13T04:43:12.374Z,-1.30
2022-12-13T04:45:39.042Z,-1.20
2022-12-13T04:48:05.945Z,-1.20
2022-12-13T04:50:32.934Z,-1.40
2022-12-13T04:52:59.723Z,-1.20
2022-12-13T04:55:26.452Z,-1.20
2022-12-13T04:57:53.106Z,-1.20
2022-12-13T05:00:22.007Z,-1.20
2022-12-13T05:02:49.041Z,-1.20
2022-12-13T05:05:15.942Z,-1.00
2022-12-13T05:07:43.080Z,-0.90
2022-12-13T05:10:11.142Z,-1.10
2022-12-13T05:12:37.975Z,-1.50
2022-12-13T05:15:05.502Z,-1.40
2022-12-13T05:17:32.089Z,-1.10
2022-12-13T05:19:58.694Z,-1.30
2022-12-13T05:22:25.722Z,-1.10
2022-12-13T05:24:52.325Z,-1.20
2022-12-13T05:27:23.667Z,-1.20
2022-12-13T05:29:53.745Z,-1.10
2022-12-13T05:32:31.044Z,-1.20
2022-12-13T05:34:57.723Z,-1.20
2022-12-13T05:37:24.304Z,-1.00
2022-12-13T05:39:50.942Z,-1.30
2022-12-13T05:42:17.499Z,-1.50
2022-12-13T05:44:44.049Z,-1.40
2022-12-13T05:47:10.668Z,-1.30
2022-12-13T05:49:37.255Z,-1.20
2022-12-13T05:52:06.323Z,-1.20
2022-12-13T05:54:32.884Z,-1.00
2022-12-13T05:56:59.472Z,-1.00
2022-12-13T05:59:26.032Z,-1.00
2022-12-13T06:01:52.789Z,-0.90
2022-12-13T06:04:22.256Z,-1.00
2022-12-13T06:06:50.914Z,-1.50
2022-12-13T06:09:18.013Z,-1.70
2022-12-13T06:11:44.649Z,-1.80
2022-12-13T06:14:22.556Z,-1.90
2022-12-13T06:16:50.997Z,-2.00
2022-12-13T06:19:17.884Z,-2.00
2022-12-13T06:21:46.564Z,-2.10
2022-12-13T06:24:18.152Z,-2.00
2022-12-13T06:26:45.853Z,-2.00
2022-12-13T06:29:24.088Z,-1.90
2022-12-13T06:32:02.275Z,-1.70
2022-12-13T06:34:34.735Z,-1.90
2022-12-13T06:37:04.817Z,-1.80
2022-12-13T06:39:33.043Z,-1.50
2022-12-13T06:42:01.563Z,-1.60
2022-12-13T06:44:28.257Z,-1.30
2022-12-13T06:46:54.847Z,-1.40
2022-12-13T06:49:41.064Z,-1.20
2022-12-13T06:52:10.047Z,-1.20
2022-12-13T06:54:36.618Z,-1.20
2022-12-13T06:57:03.265Z,-0.90
2022-12-13T06:59:29.843Z,-1.30
2022-12-13T07:02:03.265Z,-0.90
2022-12-13T07:04:31.575Z,-0.80
2022-12-13T07:07:01.545Z,-0.90
2022-12-13T07:09:32.678Z,-1.00
2022-12-13T07:11:59.738Z,-0.80
2022-12-13T07:14:26.920Z,-0.70
2022-12-13T07:16:57.944Z,-1.00
2022-12-13T07:19:35.171Z,-1.10
2022-12-13T07:22:02.895Z,-1.00
2022-12-13T07:24:29.440Z,-1.30
2022-12-13T07:26:56.001Z,-1.20
2022-12-13T07:29:22.956Z,-1.20
2022-12-13T07:31:49.763Z,-1.60
2022-12-13T07:34:16.514Z,-1.40
2022-12-13T07:36:43.242Z,-0.80
2022-12-13T07:39:09.808Z,-0.70
2022-12-13T07:41:36.402Z,-0.70
2022-12-13T07:44:03.179Z,-0.80
2022-12-13T07:46:32.928Z,-0.90
2022-12-13T07:49:02.835Z,-1.20
2022-12-13T07:51:29.622Z,-1.20
2022-12-13T07:53:57.115Z,-1.40
2022-12-13T07:56:23.674Z,-1.00
2022-12-13T07:58:50.252Z,-0.90
2022-12-13T08:01:18.279Z,-0.60
2022-12-13T08:03:47.374Z,-0.70
2022-12-13T08:06:14.134Z,-0.60
2022-12-13T08:08:40.916Z,0.00
2022-12-13T08:11:10.335Z,-0.50
2022-12-13T08:13:38.600Z,-0.60
2022-12-13T08:16:27.136Z,-0.60
2022-12-13T08:19:01.045Z,-0.70
2022-12-13T08:21:53.202Z,-0.50
2022-12-13T08:24:15.908Z,-0.50
2022-12-13T08:26:42.549Z,-0.30
2022-12-13T08:29:09.239Z,-0.20
2022-12-13T08:31:35.869Z,-0.40
2022-12-13T08:34:02.427Z,-0.60
2022-12-13T08:36:29.007Z,-0.70
2022-12-13T08:38:56.814Z,-0.50
2022-12-13T08:41:23.478Z,-0.30
2022-12-13T08:43:50.725Z,-0.30
2022-12-13T08:46:17.299Z,-0.60
2022-12-13T08:48:44.522Z,-0.20
2022-12-13T08:51:24.539Z,-0.30
2022-12-13T08:53:52.997Z,-0.30
2022-12-13T08:56:37.461Z,-0.50
2022-12-13T08:59:04.109Z,-0.80
2022-12-13T09:01:31.108Z,-0.70
2022-12-13T09:03:57.712Z,-0.40
2022-12-13T09:06:24.301Z,-0.40
2022-12-13T09:08:53.497Z,-0.10
2022-12-13T09:11:22.437Z,-0.50
2022-12-13T09:14:01.369Z,-0.30
2022-12-13T09:16:30.380Z,0.10
2022-12-13T09:22:45.291Z,-0.20
2022-12-13T09:25:14.657Z,0.20
2022-12-13T09:27:41.659Z,-0.20
2022-12-13T09:30:13.009Z,-0.60
2022-12-13T09:32:41.189Z,-0.20
2022-12-13T09:35:08.888Z,-0.10
2022-12-13T09:37:38.693Z,0.40
2022-12-13T09:40:26.108Z,0.70
2022-12-13T09:43:11.751Z,0.60
2022-12-13T09:45:43.217Z,0.60
2022-12-13T09:48:15.552Z,1.00
2022-12-13T09:50:57.654Z,0.60
2022-12-13T09:53:25.814Z,0.30
2022-12-13T09:56:10.773Z,0.50
2022-12-13T09:58:38.176Z,0.30
2022-12-13T10:01:05.993Z,-0.30
2022-12-13T10:03:32.816Z,-0.20
2022-12-13T10:06:22.679Z,0.00
2022-12-13T10:08:59.341Z,0.60
2022-12-13T10:11:31.893Z,0.80
2022-12-13T10:14:05.946Z,0.50
2022-12-13T10:16:36.124Z,1.00
2022-12-13T10:19:31.839Z,1.10
2022-12-13T10:22:02.295Z,0.70
2022-12-13T10:24:57.020Z,0.50
2022-12-13T10:27:36.569Z,0.40
2022-12-13T10:30:08.636Z,0.80
2022-12-13T10:32:59.662Z,1.10
2022-12-13T10:35:27.839Z,1.00
2022-12-13T10:38:04.342Z,0.60
2022-12-13T10:40:31.842Z,0.80
2022-12-13T10:43:18.222Z,1.00
2022-12-13T10:46:00.539Z,1.30
2022-12-13T10:48:40.232Z,1.40
2022-12-13T10:51:09.844Z,0.80
2022-12-13T10:53:47.823Z,0.70
2022-12-13T10:56:23.323Z,1.00
2022-12-13T10:59:13.273Z,1.10
2022-12-13T11:01:44.162Z,1.20
2022-12-13T11:04:31.554Z,1.00
2022-12-13T11:07:00.944Z,0.90
2022-12-13T11:09:38.865Z,1.10
2022-12-13T11:12:18.626Z,1.30
2022-12-13T11:14:54.196Z,1.20
2022-12-13T11:17:24.923Z,1.50
2022-12-13T11:19:56.092Z,1.30
2022-12-13T11:22:32.123Z,1.20
2022-12-13T11:25:18.142Z,1.70
2022-12-13T11:28:27.057Z,1.60
2022-12-13T11:31:19.154Z,1.60
2022-12-13T11:34:25.504Z,1.20
2022-12-13T11:36:54.866Z,1.50
2022-12-13T11:39:43.514Z,1.80
2022-12-13T11:42:26.994Z,1.80
2022-12-13T11:45:11.811Z,1.90
2022-12-13T11:47:58.431Z,1.70
2022-12-13T11:50:45.748Z,1.90
2022-12-13T11:53:20.875Z,1.60
2022-12-13T11:56:05.913Z,1.30
2022-12-13T11:59:03.084Z,1.60
2022-12-13T12:01:39.331Z,1.80
2022-12-13T12:04:30.209Z,1.40
2022-12-13T12:07:38.312Z,1.80
2022-12-13T12:10:13.964Z,1.80
2022-12-13T12:12:48.557Z,2.20
2022-12-13T12:15:33.215Z,2.30
2022-12-13T12:18:16.350Z,2.20
2022-12-13T12:20:51.926Z,2.10
2022-12-13T12:23:53.588Z,2.30
2022-12-13T12:26:45.198Z,2.50
2022-12-13T12:29:32.899Z,2.70
2022-12-13T12:32:28.604Z,2.60
2022-12-13T12:34:58.219Z,2.40
2022-12-13T12:37:30.231Z,2.80
2022-12-13T12:40:52.311Z,2.50
2022-12-13T12:43:21.108Z,2.30
2022-12-13T12:46:12.173Z,2.80
2022-12-13T12:49:27.695Z,2.80
2022-12-13T12:52:14.842Z,2.50
2022-12-13T12:55:02.924Z,2.20
2022-12-13T12:57:32.593Z,2.20
2022-12-13T13:00:16.087Z,2.50
2022-12-13T13:02:51.454Z,2.80
2022-12-13T13:05:30.808Z,2.70
2022-12-13T13:08:09.416Z,2.70
2022-12-13T13:10:39.255Z,2.90
2022-12-13T13:13:11.944Z,3.10
2022-12-13T13:15:39.851Z,3.00
2022-12-13T13:18:43.119Z,3.10
2022-12-13T13:21:25.666Z,3.00
2022-12-13T13:24:07.815Z,2.70
2022-12-13T13:26:40.307Z,2.70
2022-12-13T13:29:27.308Z,2.40
2022-12-13T13:32:28.534Z,2.30
2022-12-13T13:35:28.420Z,2.40
2022-12-13T13:37:55.408Z,2.40
2022-12-13T13:40:34.323Z,2.40
2022-12-13T13:43:06.471Z,2.20
2022-12-13T13:45:54.309Z,2.20
2022-12-13T13:48:26.847Z,2.10
2022-12-13T13:51:20.762Z,2.10
2022-12-13T13:54:21.027Z,2.00
2022-12-13T13:56:59.482Z,2.20
2022-12-13T13:59:59.831Z,2.00
2022-12-13T14:02:29.177Z,2.10
2022-12-13T14:05:16.783Z,2.00
2022-12-13T14:08:01.977Z,2.00
2022-12-13T14:10:49.477Z,1.90
2022-12-13T14:13:37.644Z,1.90
2022-12-13T14:16:28.708Z,2.00
2022-12-13T14:19:01.555Z,2.20
2022-12-13T14:22:08.069Z,2.00
2022-12-13T14:24:53.172Z,2.10
2022-12-13T14:27:48.493Z,2.20
2022-12-13T14:30:28.303Z,2.20
2022-12-13T14:32:56.753Z,2.10
2022-12-13T14:35:28.888Z,2.20
2022-12-13T14:38:06.711Z,2.00
2022-12-13T14:40:47.084Z,2.00
2022-12-13T14:43:34.303Z,2.00
2022-12-13T14:46:04.479Z,2.00
2022-12-13T14:48:37.313Z,2.10
2022-12-13T14:51:04.711Z,2.00
2022-12-13T14:53:42.654Z,2.00
2022-12-13T14:56:28.552Z,2.00
2022-12-13T14:59:03.727Z,2.10
2022-12-13T15:01:33.159Z,2.10
2022-12-13T15:04:21.769Z,1.90
2022-12-13T15:07:03.193Z,2.00
2022-12-13T15:09:31.031Z,2.00
2022-12-13T15:12:23.664Z,2.00
2022-12-13T15:14:50.299Z,1.90
2022-12-13T15:17:27.596Z,1.90
2022-12-13T15:19:54.253Z,1.90
2022-12-13T15:22:21.000Z,1.90
2022-12-13T15:24:48.957Z,1.90
2022-12-13T15:27:17.889Z,1.70
2022-12-13T15:29:47.312Z,1.80
2022-12-13T15:32:18.992Z,1.80
2022-12-13T15:34:49.395Z,1.80
2022-12-13T15:37:30.496Z,1.70
2022-12-13T15:40:06.351Z,1.80
2022-12-13T15:42:36.583Z,1.90
2022-12-13T15:45:06.443Z,1.60
2022-12-13T15:47:33.370Z,1.60
2022-12-13T15:50:05.920Z,1.50
2022-12-13T15:52:38.466Z,1.60
2022-12-13T15:55:10.675Z,1.50
2022-12-13T15:57:58.048Z,1.50
2022-12-13T16:00:31.004Z,1.40
2022-12-13T16:03:08.962Z,1.30
2022-12-13T16:05:40.556Z,1.40
2022-12-13T16:08:16.575Z,1.50
2022-12-13T16:10:51.145Z,1.60
2022-12-13T16:13:34.207Z,1.40
2022-12-13T16:16:26.488Z,1.50
2022-12-13T16:18:57.492Z,1.70
2022-12-13T16:21:25.302Z,1.70
2022-12-13T16:23:52.088Z,1.60
2022-12-13T16:26:25.550Z,1.70
2022-12-13T16:28:53.610Z,1.70
2022-12-13T16:31:25.286Z,1.70
2022-12-13T16:33:52.430Z,1.70
2022-12-13T16:36:19.109Z,1.50
2022-12-13T16:38:45.886Z,1.60
2022-12-13T16:41:14.520Z,1.60
2022-12-13T16:43:58.695Z,1.60
2022-12-13T16:47:12.340Z,1.50
2022-12-13T16:49:25.608Z,1.60
2022-12-13T16:51:52.518Z,1.50
2022-12-13T16:54:20.220Z,1.50
2022-12-13T16:56:47.560Z,1.50
2022-12-13T16:59:16.471Z,1.50
2022-12-13T17:01:45.176Z,1.50
2022-12-13T17:04:19.297Z,1.50
2022-12-13T17:06:47.001Z,1.20
2022-12-13T17:09:13.600Z,1.10
2022-12-13T17:11:40.406Z,1.10
2022-12-13T17:14:07.040Z,0.90
2022-12-13T17:16:33.703Z,1.10
2022-12-13T17:19:00.353Z,1.10
2022-12-13T17:21:29.580Z,1.10
2022-12-13T17:24:01.106Z,1.00
2022-12-13T17:26:28.527Z,1.40
2022-12-13T17:28:55.205Z,1.40
2022-12-13T17:31:21.865Z,1.40
2022-12-13T17:33:48.504Z,1.40
2022-12-13T17:36:16.368Z,1.60
2022-12-13T17:38:45.557Z,1.50
2022-12-13T17:41:13.746Z,1.50
2022-12-13T17:43:41.770Z,1.60
2022-12-13T17:46:14.468Z,1.70
2022-12-13T17:48:42.305Z,1.80
2022-12-13T17:51:10.710Z,1.50
2022-12-13T17:53:39.581Z,1.50
2022-12-13T17:56:10.587Z,1.60
2022-12-13T17:58:37.566Z,1.40
2022-12-13T18:01:15.337Z,1.50
2022-12-13T18:03:42.168Z,1.60
2022-12-13T18:06:09.141Z,1.50
2022-12-13T18:08:37.070Z,1.60
2022-12-13T18:13:55.444Z,1.60
2022-12-13T18:16:24.153Z,1.70
2022-12-13T18:18:55.427Z,1.70
2022-12-13T18:21:23.372Z,1.90
2022-12-13T18:23:55.208Z,1.80
2022-12-13T18:26:24.616Z,1.70
2022-12-13T18:28:52.132Z,1.40
2022-12-13T18:31:23.007Z,1.50
2022-12-13T18:33:51.107Z,1.60
2022-12-13T18:36:19.009Z,1.50
2022-12-13T18:38:46.637Z,1.70
2022-12-13T18:41:16.498Z,1.60
2022-12-13T18:43:43.912Z,1.70
2022-12-13T18:46:11.761Z,1.80
2022-12-13T18:48:38.580Z,1.80
2022-12-13T18:51:07.575Z,1.80
2022-12-13T18:53:35.532Z,1.80
2022-12-13T18:56:18.222Z,1.70
2022-12-13T18:58:46.110Z,1.70
2022-12-13T19:01:15.391Z,1.80
2022-12-13T19:03:44.886Z,1.80
2022-12-13T19:06:19.087Z,1.60
2022-12-13T19:08:50.710Z,1.60
2022-12-13T19:11:18.315Z,1.70
2022-12-13T19:13:44.993Z,1.70
2022-12-13T19:16:14.199Z,1.60
2022-12-13T19:18:41.284Z,1.40
2022-12-13T19:21:11.527Z,1.40
2022-12-13T19:23:40.736Z,1.50
2022-12-13T19:26:13.876Z,1.50
2022-12-13T19:28:41.830Z,1.40
2022-12-13T19:31:11.165Z,1.40
2022-12-13T19:33:38.059Z,1.40
2022-12-13T19:36:05.931Z,1.40
2022-12-13T19:38:34.359Z,1.40
2022-12-13T19:41:07.069Z,1.50
2022-12-13T19:43:33.660Z,1.60
2022-12-13T19:46:00.779Z,1.60
2022-12-13T19:48:27.362Z,1.70
2022-12-13T19:50:59.660Z,1.40
2022-12-13T19:53:27.458Z,1.20
2022-12-13T19:55:54.467Z,1.30
2022-12-13T19:58:21.213Z,1.30
2022-12-13T20:00:47.812Z,1.40
2022-12-13T20:03:14.388Z,1.40
2022-12-13T20:05:45.504Z,1.40
2022-12-13T20:08:12.444Z,1.50
2022-12-13T20:10:39.569Z,1.60
2022-12-13T20:13:06.206Z,1.50
2022-12-13T20:15:32.762Z,1.50
2022-12-13T20:17:59.607Z,1.60
2022-12-13T20:20:40.947Z,1.50
2022-12-13T20:23:12.973Z,1.50
2022-12-13T20:25:39.610Z,1.70
2022-12-13T20:28:09.321Z,1.50
2022-12-13T20:30:39.363Z,1.30
2022-12-13T20:33:06.060Z,1.30
2022-12-13T20:35:32.657Z,1.50
2022-12-13T20:37:59.262Z,1.70
2022-12-13T20:40:26.467Z,1.60
2022-12-13T20:42:53.148Z,1.70
2022-12-13T20:45:19.728Z,1.50
2022-12-13T20:47:46.310Z,1.40
2022-12-13T20:50:12.938Z,1.50
2022-12-13T20:52:39.521Z,1.50
2022-12-13T20:55:06.674Z,1.70
2022-12-13T20:57:33.321Z,1.60
2022-12-13T20:59:59.895Z,1.50
2022-12-13T21:02:27.243Z,1.50
2022-12-13T21:04:53.910Z,1.50
2022-12-13T21:07:40.466Z,1.50
2022-12-13T21:10:07.613Z,1.50
2022-12-13T21:12:34.162Z,1.40
2022-12-13T21:15:00.749Z,1.50
2022-12-13T21:17:27.320Z,1.50
2022-12-13T21:19:53.897Z,1.60
2022-12-13T21:22:21.526Z,1.70
2022-12-13T21:24:48.095Z,2.00
2022-12-13T21:27:14.710Z,2.20
2022-12-13T21:29:41.280Z,2.20
2022-12-13T21:32:08.005Z,2.20
2022-12-13T21:34:34.706Z,2.30
2022-12-13T21:37:01.289Z,2.00
2022-12-13T21:39:28.470Z,2.40
2022-12-13T21:41:55.954Z,2.30
2022-12-13T21:44:23.084Z,2.10
2022-12-13T21:49:36.815Z,2.30
2022-12-13T21:52:03.529Z,2.30
2022-12-13T21:54:30.153Z,2.40
2022-12-13T21:57:15.490Z,2.30
2022-12-13T21:59:42.030Z,2.30
2022-12-13T22:02:15.995Z,2.20
2022-12-13T22:04:54.915Z,2.10
2022-12-13T22:07:32.628Z,2.00
2022-12-13T22:10:00.712Z,2.10
2022-12-13T22:12:38.898Z,2.20
2022-12-13T22:15:09.156Z,1.90
2022-12-13T22:17:36.937Z,1.80
2022-12-13T22:20:13.495Z,2.10
2022-12-13T22:22:41.382Z,2.10
2022-12-13T22:25:08.707Z,2.00
2022-12-13T22:27:35.286Z,2.00
2022-12-13T22:30:01.894Z,2.10
2022-12-13T22:32:30.340Z,1.90
2022-12-13T22:34:57.399Z,1.90
2022-12-13T22:37:24.693Z,1.90
2022-12-13T22:39:51.279Z,2.10
2022-12-13T22:42:17.873Z,1.90
2022-12-13T22:44:44.500Z,1.80
2022-12-13T22:47:11.083Z,1.90
2022-12-13T22:49:37.683Z,2.00
2022-12-13T22:52:04.468Z,2.10
2022-12-13T22:54:31.040Z,2.00
2022-12-13T22:56:57.607Z,1.90
2022-12-13T22:59:24.227Z,1.90
2022-12-13T23:01:54.298Z,1.80
2022-12-13T23:04:23.476Z,2.00
2022-12-13T23:06:50.127Z,2.00
2022-12-13T23:09:16.728Z,2.30
2022-12-13T23:12:02.067Z,2.40
2022-12-13T23:14:31.706Z,2.40
2022-12-13T23:16:58.995Z,2.30
2022-12-13T23:19:49.621Z,2.40
2022-12-13T23:22:12.778Z,2.10
2022-12-13T23:24:39.404Z,2.10
2022-12-13T23:27:06.127Z,2.00
2022-12-13T23:29:32.846Z,2.00
2022-12-13T23:31:59.440Z,2.10
2022-12-13T23:34:26.348Z,2.10
2022-12-13T23:36:52.968Z,1.90
2022-12-13T23:39:19.575Z,1.60
2022-12-13T23:41:46.170Z,1.50
2022-12-13T23:44:12.881Z,1.80
2022-12-13T23:46:39.487Z,1.80
2022-12-13T23:49:06.562Z,1.90
2022-12-13T23:51:34.395Z,1.90
2022-12-13T23:54:01.301Z,2.00
2022-12-13T23:56:29.036Z,2.00
2022-12-13T23:58:55.950Z,2.00
